Time;durP1;ratioP1;P1;durP2;ratioP2;P2;SDS_P1;SDS_P2;PMS_P1;PMS_P2;Temp;Humidity;BMP_temperature;BMP_pressure;BME280_temperature;BME280_humidity;BME280_pressure;Samples;Min_cycle;Max_cycle;Signal;HPM_P1;HPM_P2
2022/12/02 05:01:32;;;;;;;29.87;24.37;;;5.10;99.90;;;;;;6212283;22;20524;-62
2022/12/02 05:04:00;;;;;;;33.93;24.77;;;5.20;99.90;;;;;;6248615;23;20473;-62
2022/12/02 05:06:27;;;;;;;28.77;23.77;;;5.20;99.90;;;;;;6248095;23;20496;-62
2022/12/02 05:08:53;;;;;;;28.40;22.90;;;5.30;99.90;;;;;;6247978;23;20415;-62
2022/12/02 05:11:20;;;;;;;33.27;24.53;;;5.30;99.90;;;;;;6232974;23;20432;-62
2022/12/02 05:13:47;;;;;;;26.70;23.13;;;5.30;99.90;;;;;;6217958;23;20485;-62
2022/12/02 05:16:13;;;;;;;31.40;25.10;;;5.30;99.90;;;;;;6217674;23;20741;-62
2022/12/02 05:18:41;;;;;;;33.27;25.13;;;5.30;99.90;;;;;;6217433;23;20411;-62
2022/12/02 05:21:08;;;;;;;30.43;24.17;;;5.30;99.90;;;;;;6217009;23;20939;-67
2022/12/02 05:23:35;;;;;;;33.83;25.37;;;5.30;99.90;;;;;;6217713;23;20471;-62
2022/12/02 05:26:01;;;;;;;33.50;25.70;;;5.30;99.90;;;;;;6217383;23;20412;-62
2022/12/02 05:28:28;;;;;;;31.70;24.87;;;5.30;99.90;;;;;;6217322;23;20435;-63
2022/12/02 05:30:54;;;;;;;34.97;25.60;;;5.30;99.90;;;;;;6217343;23;20436;-62
2022/12/02 05:33:21;;;;;;;31.00;24.87;;;5.30;99.90;;;;;;6217186;23;20412;-63
2022/12/02 05:35:49;;;;;;;35.50;25.87;;;5.30;99.90;;;;;;6217888;23;20476;-62
2022/12/02 05:38:16;;;;;;;35.77;25.80;;;5.30;99.90;;;;;;6217883;23;20407;-63
2022/12/02 05:40:42;;;;;;;31.70;24.87;;;5.40;99.90;;;;;;6216789;23;20812;-62
2022/12/02 05:43:17;;;;;;;34.43;25.87;;;5.40;99.90;;;;;;6217473;23;20411;-62
2022/12/02 05:45:44;;;;;;;35.13;27.60;;;5.40;99.90;;;;;;6217087;23;20395;-63
2022/12/02 05:48:12;;;;;;;34.37;26.53;;;5.30;99.90;;;;;;6216571;23;20439;-62
2022/12/02 05:50:39;;;;;;;39.07;26.03;;;5.40;99.90;;;;;;6216594;23;21002;-62
2022/12/02 05:53:10;;;;;;;39.50;25.73;;;5.40;99.90;;;;;;6217073;23;20412;-62
2022/12/02 05:55:37;;;;;;;36.07;26.10;;;5.40;99.90;;;;;;6216971;23;20400;-63
2022/12/02 05:58:07;;;;;;;39.03;29.13;;;5.40;99.90;;;;;;6217042;23;20490;-62
2022/12/02 06:00:33;;;;;;;40.33;28.37;;;5.30;99.90;;;;;;6217659;23;20452;-63
2022/12/02 06:03:04;;;;;;;38.30;28.70;;;5.30;99.90;;;;;;6216936;23;20396;-63
2022/12/02 06:05:35;;;;;;;45.93;31.63;;;5.30;99.90;;;;;;6217379;23;20443;-62
2022/12/02 06:08:14;;;;;;;40.00;29.93;;;5.30;99.90;;;;;;6219016;23;20420;-63
2022/12/02 06:10:46;;;;;;;42.77;31.07;;;5.30;99.90;;;;;;6216810;23;20435;-62
2022/12/02 06:13:18;;;;;;;39.03;28.80;;;5.30;99.90;;;;;;6216864;23;20396;-62
2022/12/02 06:15:45;;;;;;;41.57;30.10;;;5.40;99.90;;;;;;6217267;23;20401;-61
2022/12/02 06:18:14;;;;;;;45.47;28.83;;;5.40;99.90;;;;;;6216693;23;20712;-62
2022/12/02 06:20:41;;;;;;;40.63;29.83;;;5.30;99.90;;;;;;6217305;23;20432;-62
2022/12/02 06:23:13;;;;;;;40.70;29.60;;;5.30;99.90;;;;;;6217632;23;20411;-63
2022/12/02 06:25:40;;;;;;;39.03;31.47;;;5.30;99.90;;;;;;6217494;23;20765;-62
2022/12/02 06:28:17;;;;;;;42.10;30.60;;;5.20;99.90;;;;;;6216649;23;20435;-62
2022/12/02 06:30:44;;;;;;;42.80;30.90;;;5.20;99.90;;;;;;6216157;23;20435;-63
2022/12/02 06:33:21;;;;;;;43.40;30.73;;;5.20;99.90;;;;;;6217404;23;20412;-63
2022/12/02 06:35:47;;;;;;;41.97;30.20;;;5.20;99.90;;;;;;6218257;23;20857;-63
2022/12/02 06:38:23;;;;;;;47.70;31.07;;;5.20;99.90;;;;;;6218655;23;20415;-63
2022/12/02 06:40:49;;;;;;;45.97;29.07;;;5.20;99.90;;;;;;6219081;23;20431;-64
2022/12/02 06:43:28;;;;;;;45.23;31.40;;;5.30;99.90;;;;;;6217192;23;20411;-63
2022/12/02 06:45:55;;;;;;;40.70;27.30;;;5.20;99.90;;;;;;6217258;23;20399;-63
2022/12/02 06:48:31;;;;;;;43.43;30.70;;;5.30;99.90;;;;;;6222777;23;20435;-63
2022/12/02 06:51:05;;;;;;;39.30;29.70;;;5.30;99.90;;;;;;6219198;23;20427;-63
2022/12/02 06:53:36;;;;;;;45.40;31.63;;;5.20;99.90;;;;;;6217293;23;20457;-63
2022/12/02 06:56:13;;;;;;;44.13;31.13;;;5.20;99.90;;;;;;6216734;23;20396;-63
2022/12/02 06:58:42;;;;;;;44.57;30.70;;;5.10;99.90;;;;;;6216634;23;20466;-64
2022/12/02 07:01:25;;;;;;;41.63;30.73;;;5.10;99.90;;;;;;6216416;23;20827;-63
2022/12/02 07:04:29;;;;;;;41.63;31.43;;;5.10;99.90;;;;;;6213660;23;20422;-63
2022/12/02 07:06:59;;;;;;;41.90;29.30;;;5.10;99.90;;;;;;6215832;23;20392;-63
2022/12/02 07:09:36;;;;;;;44.63;31.50;;;5.10;99.90;;;;;;6216149;23;20419;-64
2022/12/02 07:12:10;;;;;;;46.37;31.93;;;5.10;99.90;;;;;;6216267;23;20431;-63
2022/12/02 07:14:44;;;;;;;47.37;32.07;;;5.10;99.90;;;;;;6215905;23;20869;-63
2022/12/02 07:17:19;;;;;;;45.83;33.27;;;5.10;99.90;;;;;;6216400;23;20391;-62
2022/12/02 07:19:48;;;;;;;39.10;30.03;;;5.10;99.90;;;;;;6216385;23;20711;-62
2022/12/02 07:22:17;;;;;;;45.03;30.43;;;5.10;99.90;;;;;;6216110;23;20432;-62
2022/12/02 07:24:51;;;;;;;46.10;31.57;;;5.20;99.90;;;;;;6216220;23;20799;-63
2022/12/02 07:27:22;;;;;;;43.40;31.53;;;5.20;99.90;;;;;;6216038;23;20420;-62
2022/12/02 07:29:50;;;;;;;43.37;31.27;;;5.20;99.90;;;;;;6216122;23;20399;-63
2022/12/02 07:32:17;;;;;;;45.43;30.40;;;5.20;99.90;;;;;;6216091;23;20482;-63
2022/12/02 07:34:44;;;;;;;41.70;31.47;;;5.20;99.90;;;;;;6216333;23;20412;-62
2022/12/02 07:37:10;;;;;;;43.87;31.57;;;5.10;99.90;;;;;;6216218;23;20776;-63
2022/12/02 07:39:37;;;;;;;45.43;32.83;;;5.10;99.90;;;;;;6216093;23;20768;-63
2022/12/02 07:42:05;;;;;;;41.87;32.30;;;5.10;99.90;;;;;;6215949;23;20812;-63
2022/12/02 07:44:32;;;;;;;43.23;32.50;;;5.00;99.90;;;;;;6216733;23;20420;-63
2022/12/02 07:46:59;;;;;;;41.30;30.70;;;5.00;99.90;;;;;;6216439;23;20418;-63
2022/12/02 07:49:25;;;;;;;42.77;32.10;;;5.10;99.90;;;;;;6216570;23;20845;-63
2022/12/02 07:51:52;;;;;;;45.47;30.80;;;5.00;99.90;;;;;;6216512;23;20486;-63
2022/12/02 07:54:19;;;;;;;47.60;30.60;;;5.00;99.90;;;;;;6217236;23;20908;-62
2022/12/02 07:56:45;;;;;;;47.70;32.23;;;5.00;99.90;;;;;;6218556;23;20442;-62
2022/12/02 07:59:13;;;;;;;43.83;30.60;;;5.00;99.90;;;;;;6218664;23;20414;-61
2022/12/02 08:01:40;;;;;;;43.77;29.30;;;5.10;99.90;;;;;;6218273;23;20447;-62
2022/12/02 08:04:07;;;;;;;45.03;32.30;;;5.10;99.90;;;;;;6218637;23;20422;-62
2022/12/02 08:06:33;;;;;;;44.97;32.63;;;5.10;99.90;;;;;;6216897;23;20412;-62
2022/12/02 08:09:00;;;;;;;42.27;30.93;;;5.10;99.90;;;;;;6216456;23;20807;-63
2022/12/02 08:11:26;;;;;;;43.33;31.90;;;5.10;99.90;;;;;;6215604;23;20994;-63
2022/12/02 08:13:54;;;;;;;39.77;28.07;;;5.20;99.90;;;;;;6232541;23;20418;-63
2022/12/02 08:16:22;;;;;;;37.73;28.50;;;5.20;99.90;;;;;;6231551;23;20411;-63
2022/12/02 08:18:49;;;;;;;35.70;26.80;;;5.10;99.90;;;;;;6228186;23;20430;-63
2022/12/02 08:21:16;;;;;;;40.37;28.40;;;5.10;99.90;;;;;;6216993;23;20466;-63
2022/12/02 08:23:42;;;;;;;39.50;28.80;;;5.10;99.90;;;;;;6216427;23;20412;-63
2022/12/02 08:26:09;;;;;;;39.33;28.70;;;5.10;99.90;;;;;;6216877;23;20782;-63
2022/12/02 08:28:35;;;;;;;35.10;27.70;;;5.10;99.90;;;;;;6217300;23;20439;-63
2022/12/02 08:31:02;;;;;;;44.07;30.93;;;5.10;99.90;;;;;;6217439;23;20431;-63
2022/12/02 08:33:30;;;;;;;38.30;28.17;;;5.20;99.90;;;;;;6218028;23;20396;-63
2022/12/02 08:35:57;;;;;;;40.10;28.00;;;5.10;99.90;;;;;;6217735;23;20419;-62
2022/12/02 08:38:24;;;;;;;38.83;28.93;;;5.10;99.90;;;;;;6217439;23;20408;-62
2022/12/02 08:40:50;;;;;;;44.47;30.33;;;5.10;99.90;;;;;;6217588;23;20431;-63
2022/12/02 08:43:17;;;;;;;38.97;29.00;;;5.10;99.90;;;;;;6217552;23;20420;-63
2022/12/02 08:45:44;;;;;;;37.30;27.03;;;5.10;99.90;;;;;;6217564;23;20416;-63
2022/12/02 08:48:10;;;;;;;38.50;30.90;;;5.10;99.90;;;;;;6217304;23;20462;-63
2022/12/02 08:50:38;;;;;;;37.93;28.80;;;5.10;99.90;;;;;;6217429;23;20436;-63
2022/12/02 08:53:06;;;;;;;39.30;29.00;;;5.10;99.90;;;;;;6217726;23;20411;-63
2022/12/02 08:55:33;;;;;;;33.87;26.90;;;5.10;99.90;;;;;;6217840;23;20408;-62
2022/12/02 08:58:00;;;;;;;36.27;26.20;;;5.10;99.90;;;;;;6217721;23;20467;-63
2022/12/02 09:00:27;;;;;;;30.93;25.60;;;5.10;99.90;;;;;;6217596;23;20789;-63
2022/12/02 09:02:53;;;;;;;36.37;27.50;;;5.20;99.90;;;;;;6217179;23;20861;-63
2022/12/02 09:05:20;;;;;;;31.97;24.20;;;5.20;99.90;;;;;;6217652;23;20407;-63
2022/12/02 09:07:48;;;;;;;32.53;25.50;;;5.20;99.90;;;;;;6217163;23;20792;-62
2022/12/02 09:10:15;;;;;;;31.73;24.70;;;5.20;99.90;;;;;;6216824;23;20958;-63
2022/12/02 09:12:42;;;;;;;35.77;25.30;;;5.20;99.90;;;;;;6217477;23;20469;-63
2022/12/02 09:15:09;;;;;;;32.50;24.37;;;5.20;99.90;;;;;;6217461;23;20776;-63
2022/12/02 09:17:36;;;;;;;37.93;26.13;;;5.20;99.90;;;;;;6217570;23;20486;-62
2022/12/02 09:20:03;;;;;;;36.27;25.67;;;5.20;99.90;;;;;;6217273;23;20482;-62
2022/12/02 09:22:30;;;;;;;32.17;24.53;;;5.20;99.90;;;;;;6217081;23;20432;-62
2022/12/02 09:24:58;;;;;;;28.97;22.30;;;5.20;99.90;;;;;;6217258;23;20411;-63
2022/12/02 09:27:25;;;;;;;31.57;23.77;;;5.20;99.90;;;;;;6217361;23;20415;-62
2022/12/02 09:29:51;;;;;;;31.83;23.77;;;5.20;99.90;;;;;;6217277;23;20436;-62
2022/12/02 09:32:18;;;;;;;24.97;20.30;;;5.20;99.90;;;;;;6217460;23;20432;-63
2022/12/02 09:34:44;;;;;;;27.27;21.57;;;5.20;99.90;;;;;;6217379;23;20412;-62
2022/12/02 09:37:11;;;;;;;24.27;19.97;;;5.20;99.90;;;;;;6216693;23;20893;-62
2022/12/02 09:39:38;;;;;;;29.30;22.23;;;5.30;99.90;;;;;;6217608;23;20889;-63
2022/12/02 09:42:06;;;;;;;25.80;21.17;;;5.30;99.90;;;;;;6216918;23;20729;-62
2022/12/02 09:44:33;;;;;;;27.93;22.23;;;5.40;99.90;;;;;;6216973;23;20424;-63
2022/12/02 09:46:59;;;;;;;25.00;19.13;;;5.30;99.90;;;;;;6217078;23;20407;-63
2022/12/02 09:49:26;;;;;;;25.40;19.87;;;5.30;99.90;;;;;;6217258;23;20796;-63
2022/12/02 09:51:55;;;;;;;27.50;21.70;;;5.30;99.90;;;;;;6217975;23;20489;-62
2022/12/02 09:54:21;;;;;;;27.50;20.90;;;5.20;99.90;;;;;;6217216;23;20470;-62
2022/12/02 09:56:48;;;;;;;26.30;20.57;;;5.20;99.90;;;;;;6217134;23;20411;-62
2022/12/02 09:59:16;;;;;;;24.77;19.40;;;5.20;99.90;;;;;;6216535;23;20905;-62
2022/12/02 10:01:45;;;;;;;25.03;20.13;;;5.20;99.90;;;;;;6216965;23;20494;-62
2022/12/02 10:04:15;;;;;;;24.53;20.37;;;5.30;99.90;;;;;;6217569;23;20466;-62
2022/12/02 10:06:43;;;;;;;29.93;19.70;;;5.30;99.90;;;;;;6217233;23;20415;-63
2022/12/02 10:09:14;;;;;;;24.30;19.10;;;5.30;99.90;;;;;;6216354;23;20436;-63
2022/12/02 10:11:41;;;;;;;22.77;18.80;;;5.30;99.90;;;;;;6216737;23;20435;-63
2022/12/02 10:14:12;;;;;;;23.13;19.20;;;5.30;99.90;;;;;;6216990;23;20412;-63
2022/12/02 10:16:40;;;;;;;21.90;17.80;;;5.40;99.90;;;;;;6216860;23;20396;-63
2022/12/02 10:19:10;;;;;;;24.67;19.60;;;5.40;99.90;;;;;;6216922;23;20408;-63
2022/12/02 10:21:37;;;;;;;24.47;19.50;;;5.30;99.90;;;;;;6217220;23;20812;-63
2022/12/02 10:24:07;;;;;;;22.93;18.00;;;5.30;99.90;;;;;;6217000;23;20412;-62
2022/12/02 10:26:46;;;;;;;24.20;18.70;;;5.30;99.90;;;;;;6217238;23;20424;-63
2022/12/02 10:29:18;;;;;;;23.10;19.10;;;5.30;99.90;;;;;;6217784;23;20431;-63
2022/12/02 10:31:57;;;;;;;20.00;17.77;;;5.20;99.90;;;;;;6216328;23;20466;-63
2022/12/02 10:34:25;;;;;;;20.00;17.40;;;5.30;99.90;;;;;;6216342;23;20412;-63
2022/12/02 10:36:52;;;;;;;22.33;18.50;;;5.30;99.90;;;;;;6216881;23;20412;-63
2022/12/02 10:39:24;;;;;;;20.50;17.93;;;5.40;99.90;;;;;;6216443;23;20407;-63
2022/12/02 10:42:12;;;;;;;22.17;18.20;;;5.40;99.90;;;;;;6216766;23;20439;-63
2022/12/02 10:44:41;;;;;;;18.90;16.37;;;5.50;99.90;;;;;;6216677;23;20487;-63
2022/12/02 10:47:17;;;;;;;18.77;16.40;;;5.40;99.90;;;;;;6216567;23;20503;-63
2022/12/02 10:49:47;;;;;;;17.03;15.10;;;5.40;99.90;;;;;;6216280;23;20419;-63
2022/12/02 10:52:15;;;;;;;18.97;17.00;;;5.40;99.90;;;;;;6216366;23;20485;-63
2022/12/02 10:54:46;;;;;;;18.07;15.87;;;5.40;99.90;;;;;;6216403;23;20419;-63
2022/12/02 10:57:25;;;;;;;16.13;14.00;;;5.30;99.90;;;;;;6217344;23;20454;-63
2022/12/02 10:59:52;;;;;;;16.40;14.70;;;5.30;99.90;;;;;;6216075;23;20392;-63
2022/12/02 11:02:24;;;;;;;16.27;14.50;;;5.30;99.90;;;;;;6215989;23;20443;-63
2022/12/02 11:04:52;;;;;;;16.43;14.50;;;5.30;99.90;;;;;;6216295;23;20397;-63
2022/12/02 11:07:22;;;;;;;17.00;15.20;;;5.30;99.90;;;;;;6216462;23;20439;-63
2022/12/02 11:09:53;;;;;;;16.23;14.43;;;5.30;99.90;;;;;;6216873;23;20420;-63
2022/12/02 11:12:31;;;;;;;17.30;14.83;;;5.30;99.90;;;;;;6216471;23;20804;-63
2022/12/02 11:14:58;;;;;;;15.93;14.23;;;5.30;99.90;;;;;;6235843;23;20407;-63
2022/12/02 11:17:48;;;;;;;15.60;12.87;;;5.30;99.90;;;;;;6235139;23;20408;-63
2022/12/02 11:20:29;;;;;;;14.90;12.50;;;5.40;99.90;;;;;;6224423;23;20846;-63
2022/12/02 11:23:15;;;;;;;15.43;13.93;;;5.40;99.90;;;;;;6216262;23;20936;-63
2022/12/02 11:26:07;;;;;;;14.67;13.00;;;5.40;99.90;;;;;;6217073;23;20402;-62
2022/12/02 11:28:51;;;;;;;13.50;12.20;;;5.30;99.90;;;;;;6216124;23;20420;-63
2022/12/02 11:31:25;;;;;;;13.23;12.00;;;5.30;99.90;;;;;;6216005;23;20924;-63
2022/12/02 11:34:05;;;;;;;13.00;11.60;;;5.30;99.90;;;;;;6216431;23;20403;-62
2022/12/02 11:36:33;;;;;;;12.47;11.13;;;5.30;99.90;;;;;;6216232;23;20404;-63
2022/12/02 11:39:05;;;;;;;12.67;11.37;;;5.30;99.90;;;;;;6215842;23;20901;-63
2022/12/02 11:42:05;;;;;;;14.40;12.90;;;5.30;99.90;;;;;;6216268;23;20494;-62
2022/12/02 11:44:33;;;;;;;12.20;11.10;;;5.10;99.90;;;;;;6214700;23;20408;-63
2022/12/02 11:47:01;;;;;;;14.03;12.73;;;5.10;99.90;;;;;;6216326;23;20414;-63
2022/12/02 11:49:33;;;;;;;12.23;11.07;;;5.10;99.90;;;;;;6216116;23;20493;-63
2022/12/02 11:52:05;;;;;;;11.30;10.30;;;5.10;99.90;;;;;;6216142;23;20432;-63
2022/12/02 11:54:35;;;;;;;12.93;11.47;;;5.10;99.90;;;;;;6216603;23;20447;-63
2022/12/02 11:57:02;;;;;;;14.20;12.77;;;5.10;99.90;;;;;;6215998;23;20446;-63
2022/12/02 11:59:30;;;;;;;12.53;11.23;;;5.10;99.90;;;;;;6216328;23;20722;-63
2022/12/02 12:02:11;;;;;;;11.97;10.73;;;5.20;99.90;;;;;;6216875;23;20802;-63
2022/12/02 12:04:39;;;;;;;13.67;11.97;;;5.20;99.90;;;;;;6218536;23;20491;-63
2022/12/02 12:07:06;;;;;;;13.63;11.90;;;5.20;99.90;;;;;;6218351;23;20919;-63
2022/12/02 12:09:33;;;;;;;12.17;10.97;;;5.20;99.90;;;;;;6219140;23;20465;-63
2022/12/02 12:12:11;;;;;;;13.07;11.67;;;5.30;99.90;;;;;;6218582;23;20432;-62
2022/12/02 12:14:55;;;;;;;13.53;12.00;;;5.20;99.90;;;;;;6218556;23;20454;-63
2022/12/02 12:17:42;;;;;;;12.70;11.47;;;5.20;99.90;;;;;;6218139;23;20411;-63
2022/12/02 12:20:44;;;;;;;13.57;12.20;;;5.20;99.90;;;;;;6218011;23;20697;-63
2022/12/02 12:23:32;;;;;;;14.33;12.20;;;5.10;99.90;;;;;;6218006;23;20489;-63
2022/12/02 12:25:59;;;;;;;13.37;12.07;;;5.10;99.90;;;;;;6218111;23;20917;-63
2022/12/02 12:28:27;;;;;;;12.93;11.63;;;5.10;99.90;;;;;;6217864;23;20515;-63
2022/12/02 12:30:54;;;;;;;13.43;12.10;;;5.10;99.90;;;;;;6217810;23;20431;-62
2022/12/02 12:33:21;;;;;;;13.97;12.47;;;5.00;99.90;;;;;;6217939;23;20412;-63
2022/12/02 12:35:51;;;;;;;13.20;12.00;;;5.00;99.90;;;;;;6217833;23;20422;-63
2022/12/02 12:38:18;;;;;;;15.33;12.70;;;5.00;99.90;;;;;;6218712;23;20924;-63
2022/12/02 12:40:44;;;;;;;13.20;11.50;;;5.00;99.90;;;;;;6217722;23;20800;-62
2022/12/02 12:43:11;;;;;;;12.77;11.43;;;5.00;99.90;;;;;;6217786;23;20415;-63
2022/12/02 12:45:38;;;;;;;13.97;12.57;;;4.90;99.90;;;;;;6217900;23;20412;-63
2022/12/02 12:48:05;;;;;;;14.67;12.30;;;4.90;99.90;;;;;;6217655;23;20469;-63
2022/12/02 12:50:31;;;;;;;12.97;11.67;;;4.90;99.90;;;;;;6218271;23;20435;-63
2022/12/02 12:52:59;;;;;;;13.17;11.77;;;4.90;99.90;;;;;;6219788;23;20408;-63
2022/12/02 12:55:26;;;;;;;13.17;11.87;;;4.90;99.90;;;;;;6219835;23;20420;-63
2022/12/02 12:57:53;;;;;;;12.50;11.30;;;4.90;99.90;;;;;;6221494;23;20407;-63
2022/12/02 13:00:20;;;;;;;11.47;10.37;;;4.90;99.90;;;;;;6219069;23;20787;-63
2022/12/02 13:02:47;;;;;;;12.90;11.70;;;5.00;99.90;;;;;;6219453;23;20396;-63
2022/12/02 13:05:14;;;;;;;12.23;11.13;;;5.00;99.90;;;;;;6218936;23;20442;-63
2022/12/02 13:07:40;;;;;;;13.23;11.93;;;5.00;99.90;;;;;;6218183;23;20441;-63
2022/12/02 13:10:10;;;;;;;13.77;12.40;;;5.00;99.90;;;;;;6217686;23;20443;-63
2022/12/02 13:12:37;;;;;;;13.90;12.60;;;5.00;99.90;;;;;;6217283;23;20436;-63
2022/12/02 13:15:04;;;;;;;13.87;12.47;;;5.00;99.90;;;;;;6217310;23;20470;-63
2022/12/02 13:17:31;;;;;;;14.37;12.87;;;5.00;99.90;;;;;;6217282;23;20748;-63
2022/12/02 13:19:57;;;;;;;12.97;11.67;;;5.00;99.90;;;;;;6217225;23;20893;-63
2022/12/02 13:22:24;;;;;;;13.10;11.80;;;5.00;99.90;;;;;;6217139;23;20431;-63
2022/12/02 13:24:51;;;;;;;13.30;12.07;;;5.00;99.90;;;;;;6216903;23;20893;-63
2022/12/02 13:27:19;;;;;;;13.60;12.30;;;5.10;99.90;;;;;;6217520;23;20411;-63
2022/12/02 13:29:45;;;;;;;14.07;12.70;;;5.10;99.90;;;;;;6217658;23;20424;-63
2022/12/02 13:32:12;;;;;;;13.73;12.33;;;5.10;99.90;;;;;;6217614;23;20436;-63
2022/12/02 13:34:38;;;;;;;13.07;11.70;;;5.20;99.90;;;;;;6218258;23;20419;-63
2022/12/02 13:37:05;;;;;;;12.77;11.57;;;5.20;99.90;;;;;;6217884;23;20416;-63
2022/12/02 13:39:32;;;;;;;13.90;11.63;;;5.20;99.90;;;;;;6217635;23;20908;-63
2022/12/02 13:41:59;;;;;;;11.90;10.80;;;5.10;99.90;;;;;;6217999;23;20436;-63
2022/12/02 13:44:27;;;;;;;12.60;11.50;;;5.10;99.90;;;;;;6217550;23;20412;-63
2022/12/02 13:46:54;;;;;;;14.37;12.87;;;5.20;99.90;;;;;;6217589;23;20443;-63
2022/12/02 13:49:20;;;;;;;13.77;12.30;;;5.20;99.90;;;;;;6218396;23;20485;-63
2022/12/02 13:51:47;;;;;;;14.77;13.37;;;5.20;99.90;;;;;;6218102;23;20431;-63
2022/12/02 13:54:13;;;;;;;15.07;13.43;;;5.10;99.90;;;;;;6218641;23;20411;-63
2022/12/02 13:56:40;;;;;;;12.70;11.53;;;5.10;99.90;;;;;;6218330;23;20412;-63
2022/12/02 13:59:07;;;;;;;12.50;11.30;;;5.10;99.90;;;;;;6217972;23;20439;-63
2022/12/02 14:01:35;;;;;;;14.47;12.37;;;5.10;99.90;;;;;;6216650;23;20784;-63
2022/12/02 14:04:01;;;;;;;13.07;11.93;;;5.10;99.90;;;;;;6217211;23;20470;-63
2022/12/02 14:06:28;;;;;;;13.43;12.10;;;5.10;99.90;;;;;;6218365;23;20464;-63
2022/12/02 14:08:54;;;;;;;13.23;12.03;;;5.10;99.90;;;;;;6217551;23;20415;-63
2022/12/02 14:11:21;;;;;;;14.83;13.40;;;5.10;99.90;;;;;;6217384;23;20490;-63
2022/12/02 14:13:48;;;;;;;12.97;11.57;;;5.10;99.90;;;;;;6216930;23;20412;-63
2022/12/02 14:16:14;;;;;;;15.40;13.80;;;5.10;99.90;;;;;;6216374;23;20412;-63
2022/12/02 14:18:42;;;;;;;15.57;14.07;;;5.10;99.90;;;;;;6216756;23;20415;-63
2022/12/02 14:21:09;;;;;;;19.00;16.10;;;5.10;99.90;;;;;;6216572;23;20432;-62
2022/12/02 14:23:36;;;;;;;19.90;17.80;;;5.00;99.90;;;;;;6215846;23;20900;-63
2022/12/02 14:26:02;;;;;;;20.37;18.27;;;5.00;99.90;;;;;;6216582;23;20419;-63
2022/12/02 14:28:29;;;;;;;22.03;18.80;;;5.00;99.90;;;;;;6216276;23;20474;-63
2022/12/02 14:30:56;;;;;;;21.67;19.47;;;4.90;99.90;;;;;;6216550;23;20440;-63
2022/12/02 14:33:22;;;;;;;18.23;16.30;;;4.90;99.90;;;;;;6216505;23;20431;-63
2022/12/02 14:35:50;;;;;;;19.97;17.97;;;5.00;99.90;;;;;;6216945;23;20422;-63
2022/12/02 14:38:17;;;;;;;20.97;18.80;;;5.00;99.90;;;;;;6216742;23;20412;-63
2022/12/02 14:40:44;;;;;;;20.80;18.23;;;5.00;99.90;;;;;;6216443;23;20490;-68
2022/12/02 14:43:10;;;;;;;21.47;18.80;;;5.00;99.90;;;;;;6216199;23;20412;-63
2022/12/02 14:45:37;;;;;;;21.07;18.23;;;5.00;99.90;;;;;;6216313;23;20462;-62
2022/12/02 14:48:04;;;;;;;20.57;18.43;;;5.00;99.90;;;;;;6216377;23;20434;-65
2022/12/02 14:50:30;;;;;;;20.23;17.83;;;5.00;99.90;;;;;;6216173;23;20489;-63
2022/12/02 14:52:58;;;;;;;21.07;18.77;;;5.00;99.90;;;;;;6216234;23;20415;-63
2022/12/02 14:55:25;;;;;;;18.70;16.70;;;5.00;99.90;;;;;;6216224;23;20491;-63
2022/12/02 14:57:52;;;;;;;20.30;18.10;;;5.00;99.90;;;;;;6216428;23;20469;-63
2022/12/02 15:00:20;;;;;;;19.23;17.33;;;5.00;99.90;;;;;;6216278;23;20450;-63
2022/12/02 15:02:47;;;;;;;18.33;16.50;;;5.00;99.90;;;;;;6216478;23;20400;-63
2022/12/02 15:05:16;;;;;;;18.93;16.87;;;5.00;99.90;;;;;;6216462;23;20412;-63
2022/12/02 15:07:43;;;;;;;21.97;18.70;;;4.90;99.90;;;;;;6216656;23;20412;-63
2022/12/02 15:10:13;;;;;;;19.77;17.67;;;4.80;99.90;;;;;;6216428;23;20435;-63
2022/12/02 15:12:41;;;;;;;20.70;18.53;;;4.80;99.90;;;;;;6216500;23;20773;-63
2022/12/02 15:15:09;;;;;;;22.63;20.20;;;4.70;99.90;;;;;;6216636;23;20397;-63
2022/12/02 15:17:35;;;;;;;20.67;18.50;;;4.60;99.90;;;;;;6217195;23;20412;-63
2022/12/02 15:20:02;;;;;;;20.97;18.90;;;4.60;99.90;;;;;;6217047;23;20792;-63
2022/12/02 15:22:29;;;;;;;21.60;18.80;;;4.60;99.90;;;;;;6217581;23;20432;-63
2022/12/02 15:24:55;;;;;;;22.30;20.00;;;4.70;99.90;;;;;;6216530;23;20415;-63
2022/12/02 15:27:24;;;;;;;21.30;18.97;;;4.70;99.90;;;;;;6216711;23;20412;-63
2022/12/02 15:29:51;;;;;;;24.97;20.63;;;4.60;99.90;;;;;;6216523;23;20454;-63
2022/12/02 15:32:18;;;;;;;24.97;20.37;;;4.60;99.90;;;;;;6216960;23;20432;-63
2022/12/02 15:34:44;;;;;;;21.80;19.60;;;4.70;99.90;;;;;;6216641;23;20905;-63
2022/12/02 15:37:11;;;;;;;23.90;19.30;;;4.70;99.90;;;;;;6218529;23;20411;-62
2022/12/02 15:39:38;;;;;;;24.30;20.40;;;4.60;99.90;;;;;;6218397;23;20770;-63
2022/12/02 15:42:04;;;;;;;23.97;21.47;;;4.60;99.90;;;;;;6218596;23;20515;-62
2022/12/02 15:44:32;;;;;;;22.43;20.03;;;4.70;99.90;;;;;;6218305;23;20418;-62
2022/12/02 15:46:59;;;;;;;21.83;19.53;;;4.70;99.90;;;;;;6218871;23;20415;-62
2022/12/02 15:49:26;;;;;;;23.17;20.77;;;4.60;99.90;;;;;;6218629;23;20411;-62
2022/12/02 15:51:52;;;;;;;21.40;19.10;;;4.60;99.90;;;;;;6218337;23;20436;-62
2022/12/02 15:54:19;;;;;;;22.07;19.80;;;4.60;99.90;;;;;;6218738;23;20415;-62
2022/12/02 15:56:46;;;;;;;22.73;20.33;;;4.70;99.90;;;;;;6219270;23;20411;-62
2022/12/02 15:59:15;;;;;;;23.00;19.60;;;4.70;99.90;;;;;;6219301;23;20423;-62
2022/12/02 16:01:43;;;;;;;22.07;19.70;;;4.70;99.90;;;;;;6218114;23;20439;-62
2022/12/02 16:04:10;;;;;;;23.33;20.93;;;4.80;99.90;;;;;;6218656;23;20470;-62
2022/12/02 16:06:36;;;;;;;21.87;19.53;;;4.80;99.90;;;;;;6219120;23;20407;-62
2022/12/02 16:09:03;;;;;;;21.07;18.73;;;4.80;99.90;;;;;;6218578;23;20904;-62
2022/12/02 16:11:30;;;;;;;21.30;19.00;;;4.90;99.90;;;;;;6219224;23;20778;-61
2022/12/02 16:13:56;;;;;;;22.00;19.83;;;4.90;99.90;;;;;;6218945;23;20461;-64
2022/12/02 16:16:23;;;;;;;21.83;19.50;;;4.90;99.90;;;;;;6218420;23;20418;-63
2022/12/02 16:18:51;;;;;;;20.40;18.40;;;4.90;99.90;;;;;;6218359;23;20419;-62
2022/12/02 16:21:18;;;;;;;22.13;19.80;;;5.00;99.90;;;;;;6218007;23;20482;-62
2022/12/02 16:23:45;;;;;;;23.67;21.10;;;4.90;99.90;;;;;;6218179;23;20412;-62
2022/12/02 16:26:12;;;;;;;22.73;20.43;;;4.80;99.90;;;;;;6218650;23;20418;-62
2022/12/02 16:28:41;;;;;;;20.50;18.50;;;4.90;99.90;;;;;;6217775;23;20442;-62
2022/12/02 16:31:08;;;;;;;20.77;18.70;;;4.90;99.90;;;;;;6218205;23;20439;-62
2022/12/02 16:33:35;;;;;;;21.70;19.03;;;4.90;99.90;;;;;;6218170;23;20412;-62
2022/12/02 16:36:03;;;;;;;22.33;20.00;;;5.00;99.90;;;;;;6218589;23;20412;-62
2022/12/02 16:38:29;;;;;;;20.60;18.50;;;4.90;99.90;;;;;;6218178;23;20412;-61
2022/12/02 16:40:56;;;;;;;21.40;18.70;;;4.90;99.90;;;;;;6218718;23;20427;-62
2022/12/02 16:43:23;;;;;;;20.67;18.60;;;4.90;99.90;;;;;;6218087;23;20446;-62
2022/12/02 16:45:49;;;;;;;19.33;17.37;;;4.90;99.90;;;;;;6217829;23;20462;-63
2022/12/02 16:48:16;;;;;;;22.10;19.70;;;4.90;99.90;;;;;;6218056;23;20412;-65
2022/12/02 16:50:43;;;;;;;20.93;18.80;;;4.80;99.90;;;;;;6218565;23;20467;-64
2022/12/02 16:53:11;;;;;;;23.50;18.40;;;4.80;99.90;;;;;;6218200;23;20426;-64
2022/12/02 16:55:39;;;;;;;18.37;16.47;;;4.80;99.90;;;;;;6218562;23;20498;-64
2022/12/02 16:58:05;;;;;;;21.70;18.10;;;4.80;99.90;;;;;;6218579;23;20466;-64
2022/12/02 17:00:32;;;;;;;19.53;17.40;;;4.80;99.90;;;;;;6217570;23;20467;-64
2022/12/02 17:02:59;;;;;;;20.27;18.10;;;4.70;99.90;;;;;;6218389;23;20844;-64
2022/12/02 17:05:25;;;;;;;18.47;16.67;;;4.70;99.90;;;;;;6220491;23;20412;-64
2022/12/02 17:07:52;;;;;;;19.47;17.53;;;4.70;99.90;;;;;;6219563;23;20423;-65
2022/12/02 17:10:20;;;;;;;17.23;15.53;;;4.70;99.90;;;;;;6218164;23;20467;-64
2022/12/02 17:12:47;;;;;;;18.43;16.43;;;4.70;99.90;;;;;;6217979;23;20777;-64
2022/12/02 17:15:13;;;;;;;20.60;17.70;;;4.70;99.90;;;;;;6217679;23;20741;-64
2022/12/02 17:17:40;;;;;;;18.93;17.03;;;4.70;99.90;;;;;;6217988;23;20493;-64
2022/12/02 17:20:08;;;;;;;18.60;16.80;;;4.80;99.90;;;;;;6217016;23;20889;-64
2022/12/02 17:22:35;;;;;;;16.93;15.23;;;4.80;99.90;;;;;;6217293;23;20431;-64
2022/12/02 17:25:01;;;;;;;18.80;16.80;;;4.90;99.90;;;;;;6217137;23;20786;-64
2022/12/02 17:27:29;;;;;;;17.57;15.30;;;4.90;99.90;;;;;;6217315;23;20412;-64
2022/12/02 17:29:56;;;;;;;16.67;15.07;;;5.00;99.90;;;;;;6217230;23;20439;-63
2022/12/02 17:32:23;;;;;;;16.83;15.23;;;5.00;99.90;;;;;;6217233;23;20463;-63
2022/12/02 17:34:49;;;;;;;15.37;13.80;;;5.00;99.90;;;;;;6217466;23;20419;-63
2022/12/02 17:37:16;;;;;;;16.90;15.20;;;4.90;99.90;;;;;;6217159;23;20412;-64
2022/12/02 17:39:42;;;;;;;16.00;14.50;;;5.00;99.90;;;;;;6217118;23;20411;-64
2022/12/02 17:42:09;;;;;;;14.87;13.40;;;5.00;99.90;;;;;;6216956;23;20736;-64
2022/12/02 17:44:37;;;;;;;14.67;13.27;;;5.00;99.90;;;;;;6217767;23;20412;-63